Time;durP1;ratioP1;P1;durP2;ratioP2;P2;SDS_P1;SDS_P2;PMS_P1;PMS_P2;Temp;Humidity;BMP_temperature;BMP_pressure;BME280_temperature;BME280_humidity;BME280_pressure;Samples;Min_cycle;Max_cycle;Signal;HPM_P1;HPM_P2
2022/01/06 00:02:48;;;;;;;1.58;0.80;;;;;;;0.29;33.50;91500.41;5032807;28;20083;-91
2022/01/06 00:05:42;;;;;;;1.23;0.60;;;;;;;0.60;32.83;91545.94;5056654;28;20373;-91
2022/01/06 00:08:29;;;;;;;0.80;0.63;;;;;;;0.57;33.23;91545.69;5011787;28;20038;-91
2022/01/06 00:11:37;;;;;;;0.60;0.60;;;;;;;0.62;32.42;91519.94;5046865;28;20063;-91
2022/01/06 00:14:37;;;;;;;0.67;0.67;;;;;;;0.36;32.44;91513.84;5024561;28;20036;-92
2022/01/06 00:26:49;;;;;;;;;;;;;;;;;;;;;
2022/01/06 00:29:38;;;;;;;;;;;;;;;;;;;;;
2022/01/06 00:32:29;;;;;;;;;;;;;;;;;;;;;
2022/01/06 00:35:23;;;;;;;;;;;;;;;;;;;;;
2022/01/06 00:38:12;;;;;;;0.80;0.70;;;;;;;0.49;34.68;91595.81;5025825;28;20076;-92
2022/01/06 00:41:02;;;;;;;0.60;0.60;;;;;;;0.39;34.68;91593.19;5042273;28;20470;-92
2022/01/06 00:43:50;;;;;;;0.73;0.73;;;;;;;0.57;34.88;91610.06;5039801;28;20040;-92
2022/01/06 00:46:26;;;;;;;1.37;0.87;;;;;;;0.03;34.98;91556.84;5041071;28;20051;-91
2022/01/06 00:49:17;;;;;;;0.70;0.70;;;;;;;0.08;34.33;91562.03;5041886;28;20032;-92
2022/01/06 00:52:33;;;;;;;;;;;;;;;;;;;;;
2022/01/06 00:55:32;;;;;;;0.68;0.68;;;;;;;0.18;34.68;91576.78;5053916;28;20381;-91
2022/01/06 00:58:29;;;;;;;0.50;0.50;;;;;;;0.47;32.56;91554.09;5053319;28;20032;-92
2022/01/06 01:01:06;;;;;;;0.57;0.57;;;;;;;0.58;33.08;91584.03;5039332;28;20043;-91
2022/01/06 01:03:39;;;;;;;1.23;0.80;;;;;;;0.52;34.21;91597.91;5023069;28;20479;-91
2022/01/06 01:06:29;;;;;;;0.82;0.70;;;;;;;0.57;34.02;91568.84;5056292;28;20495;-92
2022/01/06 01:09:22;;;;;;;;;;;;;;;;;;;;;
2022/01/06 01:11:57;;;;;;;0.70;0.70;;;;;;;0.73;34.85;91619.44;5038188;28;20060;-91
2022/01/06 01:14:33;;;;;;;1.58;0.90;;;;;;;0.33;35.00;91589.00;5052868;28;20459;-92
2022/01/06 01:17:14;;;;;;;;;;;;;;;;;;;;;
2022/01/06 01:20:04;;;;;;;0.70;0.70;;;;;;;0.97;35.11;91662.91;5052598;28;20083;-91
2022/01/06 01:23:04;;;;;;;0.60;0.60;;;;;;;0.30;35.47;91610.88;5036231;28;20091;-92
2022/01/06 01:26:02;;;;;;;0.60;0.60;;;;;;;0.24;35.48;91621.38;5039516;28;20041;-91
2022/01/06 01:28:43;;;;;;;;;;;;;;;;;;;;;
2022/01/06 01:31:35;;;;;;;0.70;0.70;;;;;;;0.02;35.80;91622.19;5048342;28;20055;-92
2022/01/06 01:34:28;;;;;;;0.60;0.60;;;;;;;0.56;35.91;91685.75;5041679;28;20047;-92
2022/01/06 01:37:06;;;;;;;0.82;0.70;;;;;;;0.10;35.16;91623.56;5048957;28;20049;-93
2022/01/06 01:39:47;;;;;;;0.60;0.60;;;;;;;0.19;35.72;91620.28;5055790;28;20119;-91
2022/01/06 01:42:44;;;;;;;;;;;;;;;;;;;;;
2022/01/06 01:45:27;;;;;;;1.35;1.00;;;;;;;0.38;35.19;91630.25;5055657;28;20056;-92
2022/01/06 01:48:18;;;;;;;0.52;0.52;;;;;;;0.64;34.26;91661.38;5055285;28;20127;-91
2022/01/06 01:51:15;;;;;;;;;;;;;;;0.89;34.32;91684.75;5020825;28;20513;-91
2022/01/06 01:53:57;;;;;;;1.65;0.88;;;;;;;0.45;33.90;91625.69;5037716;28;19962;-92
2022/01/06 01:56:37;;;;;;;0.60;0.60;;;;;;;0.42;33.83;91633.88;5035758;28;20086;-92
2022/01/06 01:59:33;;;;;;;0.90;0.77;;;;;;;0.68;34.54;91662.44;5037178;28;20025;-91
2022/01/06 02:02:09;;;;;;;1.05;0.63;;;;;;;0.66;33.42;91646.44;5032580;28;20056;-92
2022/01/06 02:04:52;;;;;;;0.50;0.50;;;;;;;0.74;34.07;91685.41;5032627;28;20056;-92
2022/01/06 02:07:44;;;;;;;0.50;0.50;;;;;;;0.89;33.65;91666.72;5057555;28;20138;-91
2022/01/06 02:13:52;;;;;;;0.50;0.50;;;;;;;0.89;34.97;91709.75;5063423;28;20044;-92
2022/01/06 02:20:09;;;;;;;0.90;0.70;;;;;;;0.15;35.62;91665.56;5062581;28;20055;-92
2022/01/06 02:22:59;;;;;;;0.75;0.73;;;;;;;0.12;35.44;91668.63;5037902;28;20028;-92
2022/01/06 02:26:08;;;;;;;;;;;;;;;;;;;;;
2022/01/06 02:29:10;;;;;;;1.02;0.68;;;;;;;0.01;36.27;91681.63;5040757;28;20086;-91
2022/01/06 02:32:16;;;;;;;;;;;;;;;;;;;;;
2022/01/06 02:34:57;;;;;;;0.93;0.65;;;;;;;-0.03;36.31;91669.22;5035730;28;20095;-91
2022/01/06 02:37:46;;;;;;;0.68;0.63;;;;;;;-0.07;36.47;91693.09;5037952;28;20521;-93
2022/01/06 02:41:15;;;;;;;;;;;;;;;;;;;;;
2022/01/06 02:44:12;;;;;;;2.50;0.70;;;;;;;-0.04;36.63;91697.78;5057598;28;20032;-92
2022/01/06 02:47:19;;;;;;;0.60;0.60;;;;;;;-0.13;37.25;91692.28;5054593;28;20036;-92
2022/01/06 02:50:10;;;;;;;0.60;0.60;;;;;;;-0.24;37.20;91706.03;5071503;28;20040;-92
2022/01/06 02:52:54;;;;;;;0.60;0.60;;;;;;;0.12;37.26;91784.44;5038077;28;20036;-92
2022/01/06 02:55:33;;;;;;;;;;;;;;;;;;;;;
2022/01/06 02:58:46;;;;;;;1.20;0.70;;;;;;;-0.33;37.75;91710.06;5062172;28;20040;-92
2022/01/06 03:01:25;;;;;;;0.70;0.70;;;;;;;-0.24;37.69;91750.53;5031452;28;20052;-91
2022/01/06 03:04:14;;;;;;;;;;;;;;;;;;;;;
2022/01/06 03:07:02;;;;;;;0.63;0.63;;;;;;;-0.39;37.05;91729.00;5058575;28;20032;-91
2022/01/06 03:09:51;;;;;;;0.60;0.60;;;;;;;-0.40;37.53;91732.59;5091556;28;20038;-92
2022/01/06 03:16:03;;;;;;;1.42;0.75;;;;;;;-0.46;37.96;91747.94;5075085;28;20029;-91
2022/01/06 03:19:15;;;;;;;0.60;0.60;;;;;;;-0.39;37.20;91747.00;5075906;28;20028;-93
2022/01/06 03:22:37;;;;;;;;;;;;;;;;;;;;;
2022/01/06 03:25:37;;;;;;;0.70;0.70;;;;;;;-0.37;37.14;91753.47;5091953;28;20119;-92
2022/01/06 03:32:24;;;;;;;0.70;0.70;;;;;;;-0.01;37.04;91813.88;5084423;28;20075;-91
2022/01/06 03:35:12;;;;;;;0.70;0.70;;;;;;;-0.34;36.99;91765.84;5052794;28;20031;-91
2022/01/06 03:38:01;;;;;;;;;;;;;;;;;;;;;
2022/01/06 03:41:10;;;;;;;0.60;0.60;;;;;;;-0.39;37.34;91781.19;5078057;28;20059;-91
2022/01/06 03:43:43;;;;;;;0.52;0.52;;;;;;;-0.14;37.06;91808.28;5061471;28;20036;-92
2022/01/06 03:46:39;;;;;;;0.60;0.60;;;;;;;-0.39;36.53;91778.63;5066436;28;20123;-91
2022/01/06 03:49:40;;;;;;;0.60;0.60;;;;;;;-0.34;36.35;91798.50;5060812;28;20028;-92
2022/01/06 03:52:50;;;;;;;0.60;0.60;;;;;;;-0.13;37.07;91827.88;5063183;28;20028;-92
2022/01/06 03:55:49;;;;;;;0.50;0.50;;;;;;;0.03;36.23;91841.72;5049514;28;20036;-92
2022/01/06 03:58:39;;;;;;;0.50;0.50;;;;;;;-0.26;36.33;91809.16;5050863;28;20036;-92
2022/01/06 04:01:44;;;;;;;;;;;;;;;;;;;;;
2022/01/06 04:04:54;;;;;;;0.55;0.55;;;;;;;-0.41;36.34;91796.09;5077168;28;20035;-91
2022/01/06 04:08:10;;;;;;;;;;;;;;;;;;;;;
2022/01/06 04:10:53;;;;;;;0.93;0.60;;;;;;;-0.33;36.31;91800.06;5075227;28;20127;-91
2022/01/06 04:13:34;;;;;;;0.60;0.60;;;;;;;0.05;37.03;91879.06;5061012;28;20034;-92
2022/01/06 04:16:16;;;;;;;1.67;0.77;;;;;;;-0.14;37.04;91852.03;5044132;28;20119;-92
2022/01/06 04:19:24;;;;;;;0.57;0.52;;;;;;;-0.42;36.92;91825.41;5061203;28;20028;-93
2022/01/06 04:22:11;;;;;;;0.98;0.70;;;;;;;-0.42;36.52;91812.53;5057259;28;20437;-92
2022/01/06 04:25:10;;;;;;;0.50;0.50;;;;;;;-0.11;36.56;91865.22;5074895;28;20033;-91
2022/01/06 04:27:46;;;;;;;0.60;0.60;;;;;;;-0.47;36.79;91822.75;5058582;28;20040;-93
2022/01/06 04:30:38;;;;;;;0.60;0.60;;;;;;;-0.58;36.65;91818.47;5041685;28;20044;-91
2022/01/06 04:33:14;;;;;;;;;;;;;;;;;;;;;
2022/01/06 04:35:59;;;;;;;0.60;0.60;;;;;;;-0.50;37.35;91828.34;5073545;28;19912;-92
2022/01/06 04:38:39;;;;;;;0.60;0.60;;;;;;;-0.54;37.00;91827.25;5049134;28;20043;-92
2022/01/06 04:41:19;;;;;;;0.60;0.60;;;;;;;-0.14;37.56;91898.34;5059652;28;20067;-92
2022/01/06 04:43:53;;;;;;;0.65;0.65;;;;;;;-0.58;37.06;91831.34;5060204;28;20435;-93
2022/01/06 04:46:39;;;;;;;0.75;0.60;;;;;;;-0.14;37.31;91906.81;5075328;28;20177;-92
2022/01/06 04:49:17;;;;;;;0.60;0.60;;;;;;;-0.59;37.19;91840.03;5047876;28;20044;-91
2022/01/06 04:52:13;;;;;;;;;;;;;;;;;;;;;
2022/01/06 04:55:23;;;;;;;0.70;0.70;;;;;;;-0.31;37.33;91873.41;5043728;28;20059;-92
2022/01/06 04:58:11;;;;;;;0.60;0.60;;;;;;;-0.60;36.98;91857.28;5049354;28;20041;-92
2022/01/06 05:01:14;;;;;;;0.60;0.60;;;;;;;-0.35;37.56;91897.25;5055947;28;20123;-92
2022/01/06 05:04:00;;;;;;;;;;;;;;;;;;;;;
2022/01/06 05:06:51;;;;;;;;;;;;;;;;;;;;;
2022/01/06 05:09:52;;;;;;;;;;;;;;;;;;;;;
2022/01/06 05:12:43;;;;;;;0.60;0.60;;;;;;;-0.34;37.76;91904.72;5036373;28;20087;-91
2022/01/06 05:15:35;;;;;;;;;;;;;;;;;;;;;
2022/01/06 05:18:42;;;;;;;;;;;;;;;;;;;;;
2022/01/06 05:21:55;;;;;;;1.63;0.77;;;;;;;-0.63;38.15;91897.06;5055846;28;20031;-91
2022/01/06 05:24:47;;;;;;;0.50;0.50;;;;;;;-0.53;37.27;91890.53;5037514;28;20039;-91
2022/01/06 05:27:35;;;;;;;0.63;0.63;;;;;;;-0.41;37.78;91914.38;5035402;28;20069;-91
2022/01/06 05:30:28;;;;;;;0.60;0.60;;;;;;;-0.67;37.93;91875.41;5034301;28;20036;-92
2022/01/06 05:33:26;;;;;;;0.50;0.50;;;;;;;-0.58;37.58;91875.03;5052496;28;20028;-91
2022/01/06 05:36:07;;;;;;;0.60;0.60;;;;;;;-0.29;37.28;91917.69;5050905;28;20043;-91
2022/01/06 05:39:12;;;;;;;0.50;0.50;;;;;;;-0.38;37.50;91890.00;5040431;28;20047;-91
2022/01/06 05:41:50;;;;;;;;;;;;;;;;;;;;;
2022/01/06 05:44:37;;;;;;;0.90;0.70;;;;;;;-0.04;37.03;91926.81;5072675;28;20040;-91
2022/01/06 05:47:28;;;;;;;0.90;0.70;;;;;;;0.20;35.65;91893.91;5057037;28;20051;-91
2022/01/06 05:50:44;;;;;;;0.60;0.60;;;;;;;0.57;36.02;91953.38;5057816;28;20047;-91
2022/01/06 05:53:41;;;;;;;0.50;0.50;;;;;;;0.23;35.58;91908.91;5056361;28;20029;-91
2022/01/06 05:56:39;;;;;;;;;;;;;;;;;;;;;
2022/01/06 05:59:23;;;;;;;0.60;0.60;;;;;;;0.39;36.19;91961.38;5072709;28;20031;-91
2022/01/06 06:02:10;;;;;;;0.60;0.60;;;;;;;0.08;36.32;91890.69;5011590;28;20052;-91
2022/01/06 06:04:58;;;;;;;;;;;;;;;;;;;;;
2022/01/06 06:07:42;;;;;;;;;;;;;;;;;;;;;
2022/01/06 06:10:36;;;;;;;;;;;;;;;;;;;;;
2022/01/06 06:13:27;;;;;;;0.60;0.60;;;;;;;-0.10;36.51;91886.56;5053219;28;20104;-91
2022/01/06 06:16:11;;;;;;;;;;;;;;;;;;;;;
2022/01/06 06:19:09;;;;;;;0.50;0.50;;;;;;;0.13;36.10;91903.59;5035650;28;20500;-91
2022/01/06 06:22:04;;;;;;;;;;;;;;;;;;;;;
2022/01/06 06:24:44;;;;;;;3.72;1.63;;;;;;;0.08;37.08;91922.34;5054506;28;20029;-92
2022/01/06 06:27:25;;;;;;;1.27;0.70;;;;;;;-0.11;36.28;91898.66;5041912;28;20036;-92
2022/01/06 06:30:06;;;;;;;1.83;1.00;;;;;;;-0.17;36.75;91903.97;5040334;28;20032;-91
2022/01/06 06:32:51;;;;;;;1.60;1.10;;;;;;;-0.26;37.26;91901.78;5041608;28;20127;-91
2022/01/06 06:35:58;;;;;;;0.93;0.90;;;;;;;-0.12;36.90;91927.19;5054224;28;20378;-89
2022/01/06 06:38:31;;;;;;;1.63;1.10;;;;;;;-0.06;38.41;91949.41;5049987;28;20021;-89
2022/01/06 06:41:17;;;;;;;0.90;0.80;;;;;;;-0.30;38.41;91931.53;5042726;28;20033;-89
2022/01/06 06:43:47;;;;;;;1.00;0.75;;;;;;;0.07;37.44;91949.09;5037221;28;20079;-90
2022/01/06 06:46:51;;;;;;;0.52;0.52;;;;;;;0.14;36.46;91949.72;5069127;28;20478;-88
2022/01/06 06:49:40;;;;;;;0.68;0.68;;;;;;;0.18;35.50;91912.19;5049169;28;20068;-89
2022/01/06 06:52:18;;;;;;;0.50;0.50;;;;;;;0.31;35.13;91918.78;5034197;28;20029;-89
2022/01/06 06:54:57;;;;;;;0.77;0.60;;;;;;;0.78;34.38;91957.00;5054415;28;20090;-90
2022/01/06 06:57:45;;;;;;;0.80;0.80;;;;;;;0.87;34.94;91977.22;5056136;28;20029;-89
2022/01/06 07:00:26;;;;;;;0.50;0.50;;;;;;;0.35;34.60;91911.38;5040160;28;20381;-89
2022/01/06 07:03:11;;;;;;;;;;;;;;;;;;;;;
2022/01/06 07:05:50;;;;;;;0.52;0.52;;;;;;;0.44;34.68;91935.69;5054326;28;20091;-90
2022/01/06 07:08:28;;;;;;;0.50;0.50;;;;;;;0.37;35.15;91946.16;5044502;28;20033;-89
2022/01/06 07:11:07;;;;;;;0.70;0.55;;;;;;;0.69;34.05;91973.88;5062556;28;20029;-89
2022/01/06 07:13:48;;;;;;;0.75;0.70;;;;;;;0.39;34.48;91938.22;5051931;28;20499;-90
2022/01/06 07:16:33;;;;;;;0.60;0.60;;;;;;;0.50;34.70;91929.59;5033972;28;20028;-92
2022/01/06 07:22:38;;;;;;;1.75;0.95;;;;;;;1.01;34.84;92002.41;5050068;28;20044;-92
2022/01/06 07:25:25;;;;;;;;;;;;;;;;;;;;;
2022/01/06 07:27:58;;;;;;;0.50;0.50;;;;;;;0.86;33.79;91942.94;5066357;28;20075;-91
2022/01/06 07:30:34;;;;;;;0.57;0.57;;;;;;;1.09;33.38;91990.09;5041430;28;20040;-92
2022/01/06 07:33:18;;;;;;;;;;;;;;;;;;;;;
2022/01/06 07:39:37;;;;;;;;;;;;;;;;;;;;;
2022/01/06 07:42:41;;;;;;;;;;;;;;;;;;;;;
2022/01/06 07:46:10;;;;;;;0.85;0.70;;;;;;;10.14;21.25;91968.56;5039993;28;20097;-94
2022/01/06 07:49:29;;;;;;;0.70;0.63;;;;;;;11.24;19.36;91962.03;5037229;28;20028;-93
2022/01/06 07:52:41;;;;;;;0.70;0.70;;;;;;;11.51;19.40;91970.00;5047446;28;20138;-94
2022/01/06 07:55:39;;;;;;;0.93;0.75;;;;;;;11.72;19.81;91970.97;5042377;28;20373;-93
2022/01/06 07:58:46;;;;;;;0.60;0.60;;;;;;;13.33;18.66;91993.66;5061189;28;20101;-92
2022/01/06 08:01:17;;;;;;;0.63;0.63;;;;;;;13.91;16.61;91977.47;5031579;28;20032;-94
2022/01/06 08:04:18;;;;;;;0.82;0.80;;;;;;;14.67;16.49;91988.88;5047549;28;20024;-93
2022/01/06 08:10:51;;;;;;;0.60;0.60;;;;;;;12.98;17.47;92003.44;5068401;28;20389;-91
2022/01/06 08:13:51;;;;;;;0.60;0.60;;;;;;;15.58;16.63;92037.16;5040118;28;20044;-94
2022/01/06 08:17:04;;;;;;;;;;;;;;;;;;;;;
2022/01/06 08:23:25;;;;;;;0.60;0.60;;;;;;;16.21;14.76;92036.13;5054081;28;20078;-92
2022/01/06 08:26:03;;;;;;;;;;;;;;;;;;;;;
2022/01/06 08:28:45;;;;;;;;;;;;;;;;;;;;;
2022/01/06 08:31:54;;;;;;;0.30;0.30;;;;;;;19.74;11.93;92029.00;5055986;28;20039;-92
2022/01/06 08:34:45;;;;;;;0.30;0.30;;;;;;;19.71;11.86;92027.06;5048660;28;20040;-93
2022/01/06 08:37:28;;;;;;;0.35;0.35;;;;;;;19.66;11.74;92069.81;5024046;28;20055;-93
2022/01/06 08:40:19;;;;;;;;;;;;;;;;;;;;;
2022/01/06 08:43:07;;;;;;;;;;;;;;;20.02;12.31;92074.97;5071476;28;20043;-93
2022/01/06 08:46:02;;;;;;;;;;;;;;;;;;;;;
2022/01/06 08:49:02;;;;;;;0.55;0.55;;;;;;;19.90;11.82;92060.75;5042587;28;20032;-92
2022/01/06 08:51:43;;;;;;;;;;;;;;;;;;;;;
2022/01/06 08:54:38;;;;;;;5.15;0.50;;;;;;;21.29;10.92;92063.91;5038078;28;20029;-93
2022/01/06 08:57:50;;;;;;;0.88;0.60;;;;;;;19.38;12.20;92040.09;5054982;28;20039;-93
2022/01/06 09:00:36;;;;;;;0.40;0.40;;;;;;;18.74;12.33;92077.47;5023672;28;20040;-93
2022/01/06 09:03:30;;;;;;;1.10;0.55;;;;;;;19.71;11.71;92064.22;5049519;28;20046;-93
2022/01/06 09:06:08;;;;;;;0.50;0.50;;;;;;;19.39;12.21;92045.06;5027955;28;20078;-94
2022/01/06 09:09:08;;;;;;;0.40;0.40;;;;;;;16.71;13.34;92032.31;5060147;28;20043;-92
2022/01/06 09:11:54;;;;;;;0.40;0.40;;;;;;;15.29;15.43;92034.66;5043656;28;20127;-90
2022/01/06 09:15:12;;;;;;;0.73;0.57;;;;;;;13.98;16.29;92050.63;5056434;28;20873;-92
2022/01/06 09:18:07;;;;;;;;;;;;;;;;;;;;;
2022/01/06 09:20:51;;;;;;;0.30;0.30;;;;;;;16.53;14.99;92103.13;5074164;28;20052;-91
2022/01/06 09:24:11;;;;;;;;;;;;;;;;;;;;;
2022/01/06 09:26:54;;;;;;;;;;;;;;;;;;;;;
2022/01/06 09:29:54;;;;;;;;;;;;;;;;;;;;;
2022/01/06 09:33:18;;;;;;;0.47;0.40;;;;;;;14.90;16.59;92110.53;5042183;28;20473;-92
2022/01/06 09:35:59;;;;;;;0.38;0.38;;;;;;;14.17;16.12;92082.59;5021631;28;20048;-91
2022/01/06 09:38:38;;;;;;;0.40;0.40;;;;;;;12.91;16.56;92050.44;5020250;28;20043;-91
2022/01/06 09:41:20;;;;;;;0.40;0.40;;;;;;;13.08;18.13;92089.84;5046169;28;20242;-91
2022/01/06 09:46:54;;;;;;;0.30;0.30;;;;;;;13.08;17.39;92079.34;5055739;28;20384;-90
2022/01/06 09:49:39;;;;;;;0.43;0.43;;;;;;;12.68;17.61;92042.72;5036133;28;20032;-91
2022/01/06 09:52:09;;;;;;;0.75;0.57;;;;;;;12.49;18.07;92055.38;5034364;28;20032;-89
2022/01/06 09:54:49;;;;;;;;;;;;;;;;;;;;;
2022/01/06 09:57:48;;;;;;;0.35;0.35;;;;;;;12.86;18.32;92080.25;5054310;28;20138;-92
2022/01/06 10:00:58;;;;;;;1.65;0.43;;;;;;;12.17;18.31;92069.69;5015558;28;20036;-93
2022/01/06 10:03:48;;;;;;;;;;;;;;;;;;;;;
2022/01/06 10:06:27;;;;;;;0.35;0.35;;;;;;;11.43;18.45;92061.34;5039167;28;20040;-92
2022/01/06 10:12:15;;;;;;;0.40;0.40;;;;;;;11.84;18.73;92062.94;5046876;28;20373;-91
2022/01/06 10:18:57;;;;;;;0.40;0.40;;;;;;;12.27;18.52;92053.63;5033859;28;20636;-92
2022/01/06 10:22:06;;;;;;;;;;;;;;;;;;;;;
2022/01/06 10:27:46;;;;;;;;;;;;;;;13.01;18.16;92110.53;5044698;28;20099;-92
2022/01/06 10:30:48;;;;;;;;;;;;;;;;;;;;;
2022/01/06 10:33:41;;;;;;;3.15;1.40;;;;;;;13.35;17.57;92118.75;5053189;28;20128;-90
2022/01/06 10:36:28;;;;;;;6.07;4.13;;;;;;;13.63;17.34;92096.25;5049071;28;20056;-90
2022/01/06 10:39:09;;;;;;;1.38;0.93;;;;;;;13.61;17.18;92055.59;5063263;28;20040;-91
2022/01/06 10:41:45;;;;;;;1.95;1.30;;;;;;;13.63;17.42;92106.78;5053677;28;20028;-91
2022/01/06 10:45:44;;;;;;;6.95;4.80;;;;;;;14.12;17.75;92124.91;5173684;27;20595;-81
2022/01/06 10:48:09;;;;;;;0.90;0.65;;;;;;;14.03;17.76;92135.44;5132875;28;20047;-79
2022/01/06 10:50:38;;;;;;;0.80;0.65;;;;;;;13.59;17.04;92131.38;5151285;27;20045;-78
2022/01/06 10:53:10;;;;;;;1.65;1.17;;;;;;;13.09;17.63;92120.28;5144290;27;20034;-78
2022/01/06 10:55:43;;;;;;;3.83;2.22;;;;;;;12.76;18.15;92121.81;5145356;27;20061;-78
2022/01/06 10:58:11;;;;;;;1.00;0.90;;;;;;;12.57;18.02;92114.25;5133400;27;20039;-78
2022/01/06 11:00:43;;;;;;;5.93;3.80;;;;;;;12.65;18.64;92121.34;5154365;27;20063;-78
2022/01/06 11:03:19;;;;;;;13.27;7.45;;;;;;;12.63;17.81;92129.53;5140949;27;20034;-77
2022/01/06 11:05:51;;;;;;;2.00;1.40;;;;;;;12.33;18.41;92119.91;5133238;28;20035;-79
2022/01/06 11:08:23;;;;;;;2.50;1.70;;;;;;;12.49;18.63;92129.63;5141522;27;20062;-80
2022/01/06 11:11:02;;;;;;;7.75;2.70;;;;;;;12.00;19.82;92128.09;5133897;27;20287;-83
2022/01/06 11:13:32;;;;;;;0.98;0.63;;;;;;;11.64;19.01;92129.78;5118710;28;20126;-80
2022/01/06 11:15:58;;;;;;;2.25;1.30;;;;;;;11.07;19.41;92131.44;5137254;28;20381;-82
2022/01/06 11:18:24;;;;;;;2.38;1.23;;;;;;;11.19;19.36;92113.31;5128829;27;20114;-78
2022/01/06 11:20:51;;;;;;;3.72;2.08;;;;;;;11.91;19.04;92124.69;5096968;27;20054;-80
2022/01/06 11:23:22;;;;;;;0.82;0.70;;;;;;;11.46;18.63;92121.06;5114006;27;20547;-79
2022/01/06 11:25:47;;;;;;;1.52;1.00;;;;;;;10.88;19.50;92118.50;5154092;27;20046;-80
2022/01/06 11:28:14;;;;;;;4.70;2.58;;;;;;;11.46;19.45;92131.53;5143342;27;20027;-78
2022/01/06 11:30:52;;;;;;;3.92;2.17;;;;;;;11.89;18.87;92119.75;5115786;27;20047;-78
2022/01/06 11:33:18;;;;;;;7.38;3.63;;;;;;;12.22;19.02;92116.78;5153674;27;20035;-78
2022/01/06 11:35:57;;;;;;;3.28;1.75;;;;;;;12.11;18.96;92108.41;5137808;27;20103;-77
2022/01/06 11:38:26;;;;;;;5.00;2.60;;;;;;;12.37;17.92;92115.59;5149597;27;20027;-81
2022/01/06 11:41:12;;;;;;;11.50;5.30;;;;;;;12.31;17.78;92117.56;5115345;28;20016;-79
2022/01/06 11:43:40;;;;;;;11.02;3.88;;;;;;;11.68;18.34;92122.09;5111531;28;20036;-79
2022/01/06 11:46:06;;;;;;;27.55;19.10;;;;;;;12.26;18.73;92123.72;5111898;28;20043;-79
2022/01/06 11:48:32;;;;;;;5.30;2.50;;;;;;;12.62;18.33;92112.22;5111657;28;20046;-78
2022/01/06 11:50:58;;;;;;;5.15;2.55;;;;;;;12.61;18.73;92120.41;5113656;28;20035;-78
2022/01/06 11:53:31;;;;;;;2.13;1.23;;;;;;;12.14;18.30;92118.31;5113143;28;20039;-78
2022/01/06 11:55:58;;;;;;;2.50;1.60;;;;;;;12.58;17.88;92115.78;5118202;28;20488;-79
2022/01/06 11:58:24;;;;;;;4.72;2.55;;;;;;;12.41;18.40;92133.03;5119416;28;20024;-79
2022/01/06 12:01:05;;;;;;;7.68;4.13;;;;;;;11.03;20.39;92126.00;5083369;28;20085;-79
2022/01/06 12:03:49;;;;;;;4.32;2.33;;;;;;;11.54;18.89;92116.16;5118125;28;20031;-79
2022/01/06 12:06:29;;;;;;;0.80;0.80;;;;;;;11.34;19.00;92117.44;5098835;28;20060;-79
2022/01/06 12:08:56;;;;;;;1.52;1.10;;;;;;;11.90;18.14;92121.28;5097494;28;20032;-79
2022/01/06 12:11:33;;;;;;;1.48;0.88;;;;;;;12.09;17.94;92107.94;5102060;28;20023;-77
2022/01/06 12:14:00;;;;;;;1.92;1.10;;;;;;;12.05;18.85;92105.16;5095602;28;20064;-78
2022/01/06 12:16:28;;;;;;;0.68;0.60;;;;;;;11.99;17.87;92108.22;5097168;28;20093;-80
2022/01/06 12:18:55;;;;;;;0.70;0.70;;;;;;;11.69;18.09;92113.16;5098620;28;20024;-79
2022/01/06 12:21:21;;;;;;;0.60;0.60;;;;;;;11.69;18.51;92128.13;5097621;28;20028;-78
2022/01/06 12:23:47;;;;;;;1.25;0.80;;;;;;;10.77;19.45;92125.81;5098436;28;20078;-79
2022/01/06 12:26:13;;;;;;;0.57;0.57;;;;;;;11.74;18.87;92120.88;5098940;28;20032;-79
2022/01/06 12:28:50;;;;;;;11.02;4.90;;;;;;;11.80;19.12;92119.69;5095638;28;20118;-79
2022/01/06 12:31:27;;;;;;;6.95;4.47;;;;;;;11.90;18.90;92123.16;5095318;28;20047;-77
2022/01/06 12:33:58;;;;;;;0.40;0.40;;;;;;;11.90;19.09;92128.41;5099275;28;20031;-79
2022/01/06 12:36:27;;;;;;;1.23;0.60;;;;;;;11.75;17.71;92130.28;5098977;28;20474;-77
2022/01/06 12:38:52;;;;;;;1.40;0.77;;;;;;;11.43;17.98;92121.63;5096635;28;20028;-78
2022/01/06 12:41:32;;;;;;;0.75;0.70;;;;;;;11.58;19.54;92127.59;5095873;28;20038;-78
2022/01/06 12:43:58;;;;;;;0.93;0.60;;;;;;;11.75;19.90;92130.28;5084578;28;20072;-78
2022/01/06 12:46:30;;;;;;;0.40;0.40;;;;;;;11.92;18.88;92131.50;5091802;28;20040;-77
2022/01/06 12:48:56;;;;;;;0.50;0.50;;;;;;;12.13;18.67;92116.75;5115916;27;20033;-79
2022/01/06 12:51:28;;;;;;;0.52;0.50;;;;;;;12.17;17.88;92127.41;5114717;27;20111;-78
2022/01/06 12:54:02;;;;;;;7.20;2.05;;;;;;;11.93;18.73;92133.03;5112988;28;20389;-78
2022/01/06 12:56:36;;;;;;;2.33;1.25;;;;;;;12.21;19.75;92128.34;5110469;28;20044;-78
2022/01/06 12:59:14;;;;;;;2.78;1.20;;;;;;;12.07;18.87;92137.09;5093835;28;20113;-78
2022/01/06 13:01:41;;;;;;;1.27;0.85;;;;;;;11.97;19.10;92141.84;5095187;28;20032;-79
2022/01/06 13:04:09;;;;;;;0.93;0.70;;;;;;;12.22;18.56;92133.28;5095863;28;20031;-78
2022/01/06 13:06:37;;;;;;;0.50;0.50;;;;;;;11.14;18.96;92134.41;5110773;28;20098;-78
2022/01/06 13:09:20;;;;;;;0.85;0.63;;;;;;;11.38;19.04;92141.97;5101062;28;20035;-78
2022/01/06 13:11:52;;;;;;;0.98;0.77;;;;;;;11.69;19.02;92134.13;5091983;28;20039;-79
2022/01/06 13:14:31;;;;;;;0.85;0.65;;;;;;;11.83;17.57;92144.53;5095628;28;20524;-78
2022/01/06 13:17:15;;;;;;;0.40;0.40;;;;;;;10.93;19.20;92134.88;5103608;28;20059;-78
2022/01/06 13:20:01;;;;;;;0.50;0.50;;;;;;;10.87;19.63;92149.13;5094620;28;20047;-79
2022/01/06 13:25:31;;;;;;;0.77;0.60;;;;;;;10.46;19.85;92155.22;5093544;28;20138;-78
2022/01/06 13:28:05;;;;;;;0.77;0.70;;;;;;;10.38;20.51;92155.91;5097596;28;20032;-77
2022/01/06 13:30:52;;;;;;;0.90;0.57;;;;;;;10.24;19.72;92160.34;5110657;27;20035;-78
2022/01/06 13:33:23;;;;;;;0.63;0.52;;;;;;;10.56;19.97;92147.19;5094896;28;20044;-78
2022/01/06 13:35:54;;;;;;;0.55;0.50;;;;;;;10.84;19.19;92168.06;5101442;28;20035;-78
2022/01/06 13:38:32;;;;;;;0.60;0.60;;;;;;;10.77;19.14;92160.59;5116801;28;20032;-79
2022/01/06 13:41:01;;;;;;;0.40;0.40;;;;;;;11.30;19.09;92167.03;5108626;28;20028;-78
2022/01/06 13:43:29;;;;;;;1.25;0.55;;;;;;;11.15;19.42;92170.03;5096548;28;20023;-79
2022/01/06 13:46:12;;;;;;;0.75;0.57;;;;;;;11.30;19.25;92174.88;5099431;27;20036;-77
2022/01/06 13:48:48;;;;;;;0.45;0.45;;;;;;;11.43;18.28;92168.81;5097695;28;20031;-78
2022/01/06 13:51:19;;;;;;;0.60;0.50;;;;;;;11.28;19.82;92186.75;5098104;28;20065;-79
2022/01/06 13:53:46;;;;;;;7.80;6.20;;;;;;;10.72;19.99;92188.75;5114560;28;20042;-79
2022/01/06 13:56:21;;;;;;;0.63;0.63;;;;;;;10.96;19.78;92186.63;5130165;27;20019;-78
2022/01/06 13:58:50;;;;;;;0.50;0.50;;;;;;;10.58;19.30;92186.13;5114150;28;20400;-78
2022/01/06 14:01:18;;;;;;;0.55;0.50;;;;;;;10.42;19.19;92185.66;5117541;27;20031;-79
2022/01/06 14:03:43;;;;;;;0.70;0.70;;;;;;;10.68;19.44;92185.16;5098651;28;20437;-79
2022/01/06 14:06:14;;;;;;;0.60;0.60;;;;;;;10.88;19.83;92189.97;5115958;28;20066;-77
2022/01/06 14:08:41;;;;;;;0.63;0.60;;;;;;;10.88;19.69;92194.44;5095736;28;20066;-77
2022/01/06 14:11:19;;;;;;;0.88;0.60;;;;;;;10.47;20.11;92185.59;5084853;28;20032;-77
2022/01/06 14:13:47;;;;;;;0.40;0.40;;;;;;;10.76;19.73;92194.94;5113734;28;20468;-78
2022/01/06 14:16:13;;;;;;;2.35;0.57;;;;;;;10.55;19.33;92178.88;5095524;28;20024;-77
2022/01/06 14:18:40;;;;;;;1.95;1.00;;;;;;;10.80;20.07;92193.28;5114134;27;20036;-78
2022/01/06 14:21:05;;;;;;;5.45;1.95;;;;;;;10.44;19.41;92190.59;5114004;28;20260;-77
2022/01/06 14:23:33;;;;;;;1.00;0.60;;;;;;;10.28;20.66;92192.72;5098149;28;20118;-77
2022/01/06 14:26:00;;;;;;;0.45;0.45;;;;;;;10.25;20.15;92204.53;5123582;27;20027;-76
2022/01/06 14:28:27;;;;;;;0.45;0.45;;;;;;;9.89;20.25;92204.41;5131500;27;20068;-77
2022/01/06 14:31:03;;;;;;;1.30;0.65;;;;;;;10.03;20.66;92196.59;5132301;27;20071;-77
2022/01/06 14:33:36;;;;;;;0.57;0.52;;;;;;;10.06;20.75;92207.22;5099763;28;20031;-77
2022/01/06 14:36:08;;;;;;;0.50;0.50;;;;;;;10.33;20.58;92203.88;5093363;28;20036;-77
2022/01/06 14:38:34;;;;;;;1.58;1.02;;;;;;;10.16;20.03;92204.44;5112827;28;20129;-78
2022/01/06 14:41:00;;;;;;;0.52;0.50;;;;;;;10.09;20.28;92201.44;5093426;28;20504;-77
2022/01/06 14:43:25;;;;;;;0.70;0.70;;;;;;;9.68;20.62;92217.03;5074522;28;20063;-78
2022/01/06 14:45:51;;;;;;;0.85;0.55;;;;;;;9.77;21.02;92218.72;5094775;28;20028;-77
2022/01/06 14:48:17;;;;;;;0.52;0.50;;;;;;;9.85;20.59;92216.50;5092971;28;20051;-77
2022/01/06 14:50:43;;;;;;;1.05;0.82;;;;;;;9.80;20.55;92219.97;5110544;28;20031;-78
2022/01/06 14:53:09;;;;;;;0.52;0.52;;;;;;;9.99;20.32;92219.91;5094467;28;20489;-78
2022/01/06 14:55:35;;;;;;;0.60;0.60;;;;;;;9.75;20.49;92218.22;5083054;28;20111;-78
2022/01/06 14:58:00;;;;;;;0.50;0.50;;;;;;;9.68;20.00;92225.66;5094195;28;20031;-77
2022/01/06 15:00:26;;;;;;;1.77;0.90;;;;;;;8.88;21.50;92234.41;5092703;28;20101;-76
2022/01/06 15:02:52;;;;;;;0.93;0.60;;;;;;;8.22;21.44;92241.94;5091873;28;20044;-76
2022/01/06 15:05:20;;;;;;;0.30;0.30;;;;;;;7.66;22.51;92248.44;5109128;28;20035;-78